• Join FlightAware (Why Join?)
  • Login
  • US Flag 
01:27AM EDT


 

Airport Tracker/Info


-or-


 

Live Flight TrackerFlight Track Log ✈ ASQ5967 ✈ 03-May-2013 ✈ KORD - KBNA

Flight Track Log - Related Links

Times and Time Zones

All times are in EDT time to prevent confusion due to time zone crossing. See the ASQ5967 flight status page for this flight to view local times or setup timezone preferences in your user account.

Time Position Orientation Groundspeed Altitude Reporting Facility
EDT Latitude Longitude Course Direction KTS MPH feet Rate Location/Type
04:37PM 42.0167 -87.8667 176° South 174 200 2,800  Level Chicago TRACON
04:38PM 42.0000 -87.8167 114° Southeast 208 239 4,500 1,800 Climbing Chicago TRACON
04:39PM 41.9167 -87.8167 180° South 242 278 6,700 2,100 Climbing Chicago TRACON
04:40PM 41.8667 -87.8333 194° South 245 282 8,800 1,740 Climbing Chicago TRACON
04:43PM 41.4536 -87.7870 176° South  Level Estimated
04:43PM 41.6908 -87.8453 183° South 276 318 12,900  Level Chicago Center
04:44PM 41.6094 -87.8550 185° South 289 333 14,000 1,260 Climbing Chicago Center
04:45PM 41.5050 -87.8664 185° South 310 357 15,600 1,500 Climbing Chicago Center
04:46PM 41.4161 -87.8769 185° South 315 362 17,100 1,440 Climbing Chicago Center
04:47PM 41.3281 -87.8850 184° South 313 360 18,600 1,440 Climbing Chicago Center
04:48PM 41.2389 -87.8922 183° South 316 364 20,100 1,260 Climbing Chicago Center
04:49PM 41.1486 -87.8889 178° South 320 368 21,300 960 Climbing Chicago Center
04:50PM 41.0539 -87.8864 179° South 333 383 22,100 780 Climbing Chicago Center
04:51PM 40.9517 -87.8822 178° South 359 413 23,000 960 Climbing Chicago Center
04:52PM 40.8275 -87.8781 179° South 371 427 24,200 1,140 Climbing Chicago Center
04:53PM 40.7247 -87.8753 179° South 372 428 25,400 1,140 Climbing Chicago Center
04:54PM 40.6217 -87.8725 179° South 371 427 26,600 1,140 Climbing Chicago Center
04:55PM 40.5206 -87.8694 179° South 368 423 27,800 1,020 Climbing Chicago Center
04:56PM 40.4203 -87.8642 178° South 363 418 28,800 1,020 Climbing Chicago Center
04:57PM 40.3364 -87.8472 171° South 366 421 29,600 960 Climbing Indianapolis Center
04:58PM 40.2369 -87.8250 170° South 367 422 30,500 840 Climbing Indianapolis Center
04:59PM 40.1347 -87.8036 171° South 372 428 31,400 960 Climbing Indianapolis Center
05:00PM 40.0306 -87.7842 172° South 378 435 32,500 720 Climbing Indianapolis Center
05:01PM 39.9281 -87.7622 171° South 375 432 33,000 240 Climbing Indianapolis Center
05:02PM 39.7964 -87.7353 171° South 395 455 33,000  Level Indianapolis Center
05:03PM 39.6811 -87.7111 171° South 413 475 33,000  Level Indianapolis Center
05:04PM 39.5703 -87.6894 171° South 410 472 33,000  Level Indianapolis Center
05:05PM 39.4622 -87.6667 171° South 397 457 33,000  Level Indianapolis Center
05:06PM 39.3397 -87.6414 171° South 394 453 33,000  Level Indianapolis Center
05:07PM 39.2253 -87.6200 172° South 393 452 33,000  Level Indianapolis Center
05:08PM 39.1178 -87.5978 171° South 394 453 33,000  Level Indianapolis Center
05:09PM 39.0147 -87.5778 171° South 391 450 33,000 -120 Level Indianapolis Center
05:10PM 38.9072 -87.5561 171° South 391 450 32,800 -600 Descending Indianapolis Center
05:11PM 38.8006 -87.5350 171° South 387 445 31,800 -900 Descending Indianapolis Center
05:12PM 38.6928 -87.5133 171° South 390 449 31,000 -420 Descending Indianapolis Center
05:13PM 38.5572 -87.4875 172° South 407 468 31,000  Level Indianapolis Center
05:14PM 38.4450 -87.4658 171° South 408 470 31,000  Level Indianapolis Center
05:15PM 38.3331 -87.4442 171° South 410 472 31,000  Level Indianapolis Center
05:16PM 38.2214 -87.4225 171° South 409 471 31,000  Level Indianapolis Center
05:17PM 38.1094 -87.4003 171° South 409 471 31,000  Level Indianapolis Center
05:18PM 37.9731 -87.3736 171° South 413 475 31,000 -900 Level Indianapolis Center
05:20PM 37.8075 -87.3442 172° South 419 482 28,800 -1,560 Descending Memphis Center
05:21PM 37.7561 -87.3311 169° South 409 471 27,800 -2,040 Descending Indianapolis Center
05:22PM 37.6447 -87.3092 171° South 403 464 25,700 -2,100 Descending Indianapolis Center
05:22PM 37.5878 -87.3003 173° South 407 468 24,700 -1,920 Descending Memphis Center
05:23PM 37.5000 -87.2856 172° South 419 482 23,700 -1,320 Descending Memphis Center
05:23PM 37.4708 -87.2789 170° South 413 475 23,400 -720 Descending Memphis Center
05:24PM 37.3892 -87.2664 173° South 419 482 23,000 -720 Descending Memphis Center
05:24PM 37.3597 -87.2544 162° South 412 474 22,700 -2,040 Descending Memphis Center
05:25PM 37.2758 -87.2369 171° South 400 460 21,000 -2,400 Descending Memphis Center
05:25PM 37.2486 -87.2250 161° South 412 474 20,300 -2,400 Descending Memphis Center
05:26PM 37.1708 -87.2019 167° South 394 453 18,600 -2,640 Descending Memphis Center
05:26PM 37.1331 -87.1906 166° South 402 463 17,700 -2,700 Descending Memphis Center
05:27PM 37.0658 -87.1722 168° South 374 430 15,900 -2,520 Descending Memphis Center
05:27PM 37.0344 -87.1631 167° South 378 435 15,200 -2,460 Descending Memphis Center
05:28PM 36.9758 -87.1472 168° South 330 380 13,400 -2,520 Descending Memphis Center
05:28PM 36.9464 -87.1356 162° South 348 400 12,700 -1,980 Descending Memphis Center
05:29PM 36.8894 -87.1197 167° South 296 341 11,400 -1,500 Descending Memphis Center
05:29PM 36.8664 -87.1128 166° South 314 361 11,200 -780 Descending Memphis Center
05:30PM 36.7992 -87.0869 163° South 277 319 10,400 -1,140 Descending Memphis Center
05:31PM 36.7419 -87.0531 155° Southeast 242 278 9,000 -780 Descending Memphis Center
05:32PM 36.6825 -87.0167 154° Southeast 230 265 8,900 -240 Descending Memphis Center
05:33PM 36.6233 -86.9778 152° Southeast 236 272 8,600 -780 Descending Memphis Center
05:34PM 36.5639 -86.9442 156° South 241 277 7,400 -1,200 Descending Memphis Center
05:35PM 36.5172 -86.9178 156° South 230 265 6,300 -1,200 Descending Memphis Center
05:36PM 36.4603 -86.8892 158° South 221 254 5,100 -1,260 Descending Memphis Center
05:37PM 36.4031 -86.8556 155° Southeast 221 254 3,800 -1,080 Descending Memphis Center
05:38PM 36.3394 -86.8197 156° South 221 254 3,000 -420 Descending Memphis Center
05:39PM 36.2789 -86.8144 176° South 221 254 3,000 -420 Level Memphis Center
05:40PM 36.2242 -86.7989 167° South 210 242 2,200 -540 Descending Memphis Center
05:41PM 36.1897 -86.7619 139° Southeast 172 198 2,000 -420 Descending Memphis Center
05:42PM 36.1658 -86.7294 132° Southeast 140 161 1,400 -600 Descending Memphis Center
05:43PM 36.1442 -86.6994 132° Southeast 140 161 800 3,780 Descending Memphis Center
05:44PM 36.1119 -86.6675 141° Southeast 140 161 9,000 8,160 Climbing Memphis Center
05:46PM 36.1167 -86.6667 North  Level FlightAware Approximate
05:53PM 36.1245 -86.6782 North  Level Estimated
05:54PM 36.1245 -86.6782 North  Level Estimated
05:55PM 36.1245 -86.6782 North  Level Estimated
05:56PM 36.1245 -86.6782 North  Level Estimated
05:57PM 36.1245 -86.6782 North  Level Estimated
05:58PM 36.1245 -86.6782 North  Level Estimated
05:59PM 36.1245 -86.6782 North  Level Estimated
06:00PM 36.1245 -86.6782 North  Level Estimated